Time;durP1;ratioP1;P1;durP2;ratioP2;P2;SDS_P1;SDS_P2;PMS_P1;PMS_P2;Temp;Humidity;BMP_temperature;BMP_pressure;BME280_temperature;BME280_humidity;BME280_pressure;Samples;Min_cycle;Max_cycle;Signal;HPM_P1;HPM_P2
2022/08/23 00:01:51;;;;;;;21.75;12.43;;;16.90;99.90;;;;;;7392760;19;20027;-81
2022/08/23 00:04:27;;;;;;;17.80;11.93;;;16.90;99.90;;;;;;7392216;19;20025;-80
2022/08/23 00:06:54;;;;;;;20.48;13.23;;;16.90;99.90;;;;;;7393474;19;20081;-80
2022/08/23 00:09:22;;;;;;;17.02;12.00;;;16.90;99.90;;;;;;7393740;19;20010;-80
2022/08/23 00:12:13;;;;;;;15.60;12.43;;;16.90;99.90;;;;;;7394084;19;20081;-81
2022/08/23 00:14:45;;;;;;;20.02;12.73;;;16.80;99.90;;;;;;7392570;19;20042;-81
2022/08/23 00:17:12;;;;;;;15.85;12.43;;;16.80;99.90;;;;;;7391865;19;20015;-80
2022/08/23 00:19:39;;;;;;;18.65;11.98;;;16.80;99.90;;;;;;7392710;19;20010;-80
2022/08/23 00:22:05;;;;;;;21.08;12.77;;;16.80;99.90;;;;;;7398300;19;20010;-80
2022/08/23 00:24:32;;;;;;;18.83;13.25;;;16.80;99.90;;;;;;7407677;19;20022;-80
2022/08/23 00:27:07;;;;;;;16.13;11.65;;;16.80;99.90;;;;;;7405850;19;20013;-80
2022/08/23 00:29:44;;;;;;;19.50;13.98;;;16.80;99.90;;;;;;7407596;19;20018;-80
2022/08/23 00:32:13;;;;;;;18.77;13.20;;;16.90;99.90;;;;;;7407332;19;20006;-81
2022/08/23 00:34:39;;;;;;;18.80;12.55;;;16.90;99.90;;;;;;7407907;19;20050;-80
2022/08/23 00:37:08;;;;;;;16.70;12.75;;;16.80;99.90;;;;;;7409482;19;20086;-80
2022/08/23 00:39:34;;;;;;;16.02;11.73;;;16.80;99.90;;;;;;7406859;19;20018;-81
2022/08/23 00:47:59;;;;;;;20.58;15.30;;;16.80;99.90;;;;;;7406719;19;20011;-81
2022/08/23 00:50:28;;;;;;;23.48;15.40;;;16.90;99.90;;;;;;7404766;19;20014;-80
2022/08/23 00:53:01;;;;;;;16.10;13.13;;;16.90;99.90;;;;;;7406852;19;20014;-80
2022/08/23 00:55:27;;;;;;;21.67;14.05;;;16.90;99.90;;;;;;7404838;19;20011;-80
2022/08/23 00:57:54;;;;;;;15.52;13.45;;;16.90;99.90;;;;;;7405403;19;20026;-81
2022/08/23 01:00:20;;;;;;;20.35;14.52;;;16.90;99.90;;;;;;7406343;19;20037;-80
2022/08/23 01:02:48;;;;;;;19.08;13.65;;;16.90;99.90;;;;;;7406380;19;20010;-80
2022/08/23 01:05:14;;;;;;;19.90;15.00;;;16.90;99.90;;;;;;7406162;19;20355;-80
2022/08/23 01:07:50;;;;;;;18.08;14.10;;;16.90;99.90;;;;;;7404690;19;20006;-80
2022/08/23 01:10:46;;;;;;;19.23;14.27;;;16.90;99.90;;;;;;7406062;19;20013;-80
2022/08/23 01:13:28;;;;;;;20.55;14.23;;;16.90;99.90;;;;;;7406734;19;20468;-80
2022/08/23 01:16:27;;;;;;;20.23;14.30;;;16.90;99.90;;;;;;7405029;19;20017;-80
2022/08/23 01:18:54;;;;;;;15.40;13.75;;;16.80;99.90;;;;;;7405077;19;20006;-80
2022/08/23 01:21:40;;;;;;;19.15;14.25;;;16.80;99.90;;;;;;7404432;19;20015;-81
2022/08/23 01:24:07;;;;;;;19.05;14.15;;;16.80;99.90;;;;;;7405833;19;20018;-81
2022/08/23 01:26:34;;;;;;;23.92;16.15;;;16.90;99.90;;;;;;7406004;19;20512;-81
2022/08/23 01:29:05;;;;;;;21.63;14.80;;;16.90;99.90;;;;;;7403663;19;20029;-81
2022/08/23 01:31:32;;;;;;;16.92;14.50;;;16.80;99.90;;;;;;7403859;19;20063;-81
2022/08/23 01:34:05;;;;;;;18.35;14.82;;;16.90;99.90;;;;;;7399965;19;20013;-81
2022/08/23 01:36:31;;;;;;;20.45;14.35;;;16.80;99.90;;;;;;7400326;19;20070;-81
2022/08/23 01:38:58;;;;;;;22.30;16.50;;;16.70;99.90;;;;;;7397743;19;20038;-81
2022/08/23 01:41:25;;;;;;;19.80;16.30;;;16.70;99.90;;;;;;7396837;19;20015;-81
2022/08/23 01:43:50;;;;;;;21.63;15.95;;;16.60;99.90;;;;;;7398036;19;20053;-81
2022/08/23 01:46:18;;;;;;;19.67;16.25;;;16.70;99.90;;;;;;7396607;19;20360;-81
2022/08/23 01:48:47;;;;;;;21.95;16.08;;;16.70;99.90;;;;;;7398563;19;20011;-81
2022/08/23 01:51:15;;;;;;;21.63;15.77;;;16.70;99.90;;;;;;7396023;19;20059;-81
2022/08/23 01:53:42;;;;;;;19.52;15.95;;;16.70;99.90;;;;;;7398185;19;20513;-81
2022/08/23 01:56:08;;;;;;;23.77;18.05;;;16.70;99.90;;;;;;7397641;19;20029;-81
2022/08/23 01:58:35;;;;;;;19.58;16.15;;;16.70;99.90;;;;;;7396127;19;20427;-81
2022/08/23 02:01:03;;;;;;;23.30;17.08;;;16.60;99.90;;;;;;7396498;19;20014;-81
2022/08/23 02:03:30;;;;;;;24.67;17.45;;;16.60;99.90;;;;;;7397863;19;20455;-81
2022/08/23 02:05:56;;;;;;;19.33;16.33;;;16.60;99.90;;;;;;7397266;19;20494;-80
2022/08/23 02:11:19;;;;;;;25.25;18.20;;;16.60;99.90;;;;;;7397169;19;20018;-80
2022/08/23 02:13:46;;;;;;;20.88;17.27;;;16.60;99.90;;;;;;7397098;19;20014;-79
2022/08/23 02:16:13;;;;;;;23.30;17.23;;;16.60;99.90;;;;;;7394201;19;20021;-81
2022/08/23 02:18:39;;;;;;;22.65;16.58;;;16.60;99.90;;;;;;7395576;19;20035;-80
2022/08/23 02:21:05;;;;;;;23.33;17.17;;;16.60;99.90;;;;;;7395998;19;20014;-81
2022/08/23 02:23:31;;;;;;;21.70;18.35;;;16.60;99.90;;;;;;7397280;19;20015;-81
2022/08/23 02:25:57;;;;;;;20.90;17.50;;;16.60;99.90;;;;;;7397301;19;20018;-81
2022/08/23 02:28:23;;;;;;;21.23;18.95;;;16.50;99.90;;;;;;7395241;19;20033;-81
2022/08/23 02:30:50;;;;;;;21.35;18.20;;;16.50;99.90;;;;;;7395589;19;20014;-81
2022/08/23 02:33:16;;;;;;;20.10;17.17;;;16.50;99.90;;;;;;7395425;19;20007;-81
2022/08/23 02:35:42;;;;;;;19.83;16.55;;;16.60;99.90;;;;;;7395430;19;20356;-81
2022/08/23 02:38:10;;;;;;;24.50;17.92;;;16.50;99.90;;;;;;7395026;19;20011;-80
2022/08/23 02:40:38;;;;;;;22.52;19.45;;;16.50;99.90;;;;;;7395478;19;20031;-81
2022/08/23 02:43:05;;;;;;;22.40;18.42;;;16.40;99.90;;;;;;7396223;19;20018;-81
2022/08/23 02:45:32;;;;;;;21.25;17.10;;;16.40;99.90;;;;;;7393462;19;20022;-81
2022/08/23 02:47:58;;;;;;;13.80;12.27;;;16.40;99.90;;;;;;7395890;19;20015;-80
2022/08/23 02:50:25;;;;;;;16.88;13.93;;;16.30;99.90;;;;;;7395852;19;20544;-81
2022/08/23 02:52:52;;;;;;;21.33;17.02;;;16.30;99.90;;;;;;7395720;19;20014;-81
2022/08/23 02:55:19;;;;;;;24.00;16.77;;;16.20;99.90;;;;;;7395956;19;20492;-80
2022/08/23 02:57:44;;;;;;;17.23;15.35;;;16.10;99.90;;;;;;7395839;19;20006;-80
2022/08/23 03:00:12;;;;;;;24.25;16.63;;;16.10;99.90;;;;;;7395877;19;20463;-80
2022/08/23 03:02:39;;;;;;;18.92;16.92;;;16.10;99.90;;;;;;7394129;19;20376;-80
2022/08/23 03:05:06;;;;;;;19.58;15.90;;;16.00;99.90;;;;;;7395148;19;20426;-80
2022/08/23 03:07:33;;;;;;;19.95;16.77;;;16.00;99.90;;;;;;7395545;19;20070;-80
2022/08/23 03:09:58;;;;;;;19.75;17.63;;;16.00;99.90;;;;;;7393828;19;20006;-80
2022/08/23 03:12:25;;;;;;;19.70;17.65;;;16.00;99.90;;;;;;7393461;19;20021;-80
2022/08/23 03:14:51;;;;;;;20.70;17.10;;;16.00;99.90;;;;;;7395277;19;20018;-80
2022/08/23 03:17:18;;;;;;;17.63;15.75;;;16.00;99.90;;;;;;7392311;19;20364;-80
2022/08/23 03:19:44;;;;;;;17.23;15.27;;;16.00;99.90;;;;;;7394788;19;20077;-81
2022/08/23 03:22:10;;;;;;;19.65;17.70;;;16.00;99.90;;;;;;7391669;19;20768;-80
2022/08/23 03:24:36;;;;;;;21.30;17.98;;;15.90;99.90;;;;;;7394605;19;20101;-80
2022/08/23 03:27:03;;;;;;;19.92;17.80;;;15.90;99.90;;;;;;7394489;19;20497;-80
2022/08/23 03:29:30;;;;;;;21.75;18.23;;;15.90;99.90;;;;;;7394623;19;20472;-80
2022/08/23 03:32:00;;;;;;;22.42;18.42;;;15.80;99.90;;;;;;7395110;19;20006;-80
2022/08/23 03:34:26;;;;;;;23.40;19.58;;;15.80;99.90;;;;;;7394553;19;20010;-80
2022/08/23 03:36:51;;;;;;;23.95;21.42;;;15.80;99.90;;;;;;7395885;19;20073;-80
2022/08/23 03:39:17;;;;;;;23.75;20.88;;;15.80;99.90;;;;;;7392907;19;20014;-80
2022/08/23 03:41:44;;;;;;;22.83;20.45;;;15.80;99.90;;;;;;7391963;19;20018;-80
2022/08/23 03:44:10;;;;;;;25.95;23.00;;;15.80;99.90;;;;;;7392487;19;20372;-80
2022/08/23 03:46:36;;;;;;;24.95;22.35;;;15.80;99.90;;;;;;7394201;19;20050;-80
2022/08/23 03:49:03;;;;;;;28.33;23.83;;;15.80;99.90;;;;;;7393610;19;20010;-80
2022/08/23 03:51:31;;;;;;;29.48;23.98;;;15.80;99.90;;;;;;7392929;19;20024;-80
2022/08/23 03:53:58;;;;;;;26.90;24.02;;;15.80;99.90;;;;;;7393917;19;20014;-80
2022/08/23 03:56:26;;;;;;;26.50;23.10;;;15.80;99.90;;;;;;7393056;19;20043;-80
2022/08/23 03:58:52;;;;;;;31.25;25.23;;;15.80;99.90;;;;;;7393996;19;20034;-80
2022/08/23 04:01:19;;;;;;;31.10;26.08;;;15.80;99.90;;;;;;7393349;19;20033;-80
2022/08/23 04:03:47;;;;;;;28.83;25.20;;;15.80;99.90;;;;;;7392342;19;20028;-80
2022/08/23 04:06:14;;;;;;;29.10;26.15;;;15.90;99.90;;;;;;7393749;19;20015;-81
2022/08/23 04:08:40;;;;;;;29.23;26.02;;;15.90;99.90;;;;;;7393642;19;20018;-81
2022/08/23 04:11:06;;;;;;;33.85;25.77;;;15.90;99.90;;;;;;7393428;19;20479;-81
2022/08/23 04:13:33;;;;;;;28.75;25.50;;;15.80;99.90;;;;;;7392159;19;20014;-81
2022/08/23 04:16:02;;;;;;;27.58;24.60;;;15.90;99.90;;;;;;7390881;19;20014;-81
2022/08/23 04:18:30;;;;;;;26.50;23.67;;;15.80;99.90;;;;;;7391916;19;20014;-80
2022/08/23 04:20:57;;;;;;;30.65;25.42;;;15.80;99.90;;;;;;7392493;19;20013;-81
2022/08/23 04:23:24;;;;;;;32.20;25.92;;;15.70;99.90;;;;;;7391416;19;20015;-81
2022/08/23 04:25:50;;;;;;;28.83;25.85;;;15.70;99.90;;;;;;7393182;19;20494;-80
2022/08/23 04:28:16;;;;;;;30.58;27.08;;;15.60;99.90;;;;;;7391858;19;20360;-79
2022/08/23 04:30:43;;;;;;;32.50;27.05;;;15.60;99.90;;;;;;7391219;19;20011;-80
2022/08/23 04:33:09;;;;;;;29.20;26.25;;;15.60;99.90;;;;;;7391775;19;20015;-81
2022/08/23 04:35:35;;;;;;;29.35;26.27;;;15.60;99.90;;;;;;7393808;19;20475;-79
2022/08/23 04:38:01;;;;;;;29.52;26.35;;;15.60;99.90;;;;;;7392934;19;20090;-79
2022/08/23 04:43:12;;;;;;;27.73;24.77;;;15.60;99.90;;;;;;7392829;19;20074;-79
2022/08/23 04:45:38;;;;;;;27.60;24.73;;;15.60;99.90;;;;;;7392340;19;20023;-79
2022/08/23 04:48:07;;;;;;;28.88;25.95;;;15.60;99.90;;;;;;7392715;19;20022;-80
2022/08/23 04:50:33;;;;;;;27.50;24.73;;;15.60;99.90;;;;;;7390624;19;20480;-80
2022/08/23 04:52:59;;;;;;;27.45;24.77;;;15.60;99.90;;;;;;7390699;19;20108;-80
2022/08/23 04:55:24;;;;;;;29.80;26.55;;;15.60;99.90;;;;;;7392580;19;20014;-80
2022/08/23 04:57:50;;;;;;;28.02;25.15;;;15.60;99.90;;;;;;7392614;19;20341;-80
2022/08/23 05:00:16;;;;;;;29.00;25.92;;;15.60;99.90;;;;;;7390276;19;20085;-80
2022/08/23 05:02:42;;;;;;;29.50;26.40;;;15.60;99.90;;;;;;7392451;19;20003;-80
2022/08/23 05:05:10;;;;;;;28.17;25.17;;;15.70;99.90;;;;;;7390307;19;20018;-80
2022/08/23 05:07:37;;;;;;;25.60;22.75;;;15.70;99.90;;;;;;7390643;19;20021;-80
2022/08/23 05:10:05;;;;;;;24.73;22.23;;;15.70;99.90;;;;;;7398101;19;20027;-80
2022/08/23 05:12:31;;;;;;;26.67;24.20;;;15.70;99.90;;;;;;7399438;19;20010;-80
2022/08/23 05:14:57;;;;;;;27.63;23.58;;;15.80;99.90;;;;;;7397663;19;20361;-80
2022/08/23 05:17:22;;;;;;;25.40;22.80;;;15.90;99.90;;;;;;7395043;19;20093;-80
2022/08/23 05:19:48;;;;;;;25.02;22.55;;;15.90;99.90;;;;;;7399329;19;20483;-80
2022/08/23 05:22:14;;;;;;;22.88;20.50;;;15.90;99.90;;;;;;7396881;19;20018;-80
2022/08/23 05:24:40;;;;;;;23.45;20.63;;;15.90;99.90;;;;;;7399193;19;20014;-80
2022/08/23 05:27:06;;;;;;;22.67;20.15;;;15.90;99.90;;;;;;7398786;19;20010;-80
2022/08/23 05:29:31;;;;;;;23.40;20.80;;;16.00;99.90;;;;;;7397014;19;20018;-80
2022/08/23 05:31:57;;;;;;;20.55;18.15;;;16.00;99.90;;;;;;7397536;19;20795;-80
2022/08/23 05:34:24;;;;;;;20.02;17.98;;;16.10;99.90;;;;;;7396834;19;20015;-80
2022/08/23 05:36:51;;;;;;;19.88;17.13;;;16.10;99.90;;;;;;7402713;19;20048;-80
2022/08/23 05:39:17;;;;;;;19.98;17.85;;;16.30;99.90;;;;;;7398787;19;20014;-80
2022/08/23 05:41:43;;;;;;;20.85;18.58;;;16.40;99.90;;;;;;7396930;19;20025;-80
2022/08/23 05:44:10;;;;;;;21.52;17.63;;;16.50;99.90;;;;;;7396566;19;20011;-80
2022/08/23 05:46:37;;;;;;;19.92;17.83;;;16.60;99.90;;;;;;7398325;19;20084;-80
2022/08/23 05:49:04;;;;;;;19.25;17.25;;;16.60;99.90;;;;;;7397683;19;20015;-80
2022/08/23 05:51:32;;;;;;;20.13;17.63;;;16.60;99.90;;;;;;7398196;19;20017;-80
2022/08/23 05:54:01;;;;;;;20.10;18.10;;;16.70;99.90;;;;;;7397761;19;20062;-80
2022/08/23 05:56:33;;;;;;;18.58;16.52;;;16.60;99.90;;;;;;7397659;19;20066;-80
2022/08/23 05:59:02;;;;;;;16.90;15.20;;;16.60;99.90;;;;;;7397977;19;20017;-80
2022/08/23 06:01:29;;;;;;;19.88;16.88;;;16.70;99.90;;;;;;7396435;19;20077;-80
2022/08/23 06:03:58;;;;;;;16.02;13.48;;;16.80;99.90;;;;;;7397633;19;20467;-80
2022/08/23 06:06:24;;;;;;;17.80;15.95;;;16.90;99.90;;;;;;7397646;19;20014;-80
2022/08/23 06:08:50;;;;;;;19.33;15.02;;;16.90;99.90;;;;;;7395829;19;20021;-80
2022/08/23 06:11:22;;;;;;;20.25;14.57;;;17.00;99.90;;;;;;7395866;19;20017;-80
2022/08/23 06:13:56;;;;;;;17.63;14.52;;;17.10;99.90;;;;;;7395903;19;20373;-80
2022/08/23 06:16:25;;;;;;;16.58;14.50;;;17.10;99.90;;;;;;7395309;19;20025;-80
2022/08/23 06:18:53;;;;;;;14.98;13.45;;;17.20;99.90;;;;;;7395410;19;20014;-80
2022/08/23 06:21:20;;;;;;;18.90;14.52;;;17.30;99.90;;;;;;7393910;19;20495;-80
2022/08/23 06:23:48;;;;;;;14.77;13.35;;;17.40;99.90;;;;;;7396016;19;20014;-80
2022/08/23 06:26:17;;;;;;;15.90;13.85;;;17.50;99.90;;;;;;7396922;19;20605;-80
2022/08/23 06:28:46;;;;;;;15.85;12.80;;;17.60;99.90;;;;;;7394789;19;20080;-79
2022/08/23 06:31:12;;;;;;;13.32;11.95;;;17.70;99.90;;;;;;7397007;19;20010;-80
2022/08/23 06:33:41;;;;;;;14.77;12.82;;;17.70;99.90;;;;;;7395051;19;20503;-80
2022/08/23 06:36:15;;;;;;;14.93;11.73;;;17.80;99.90;;;;;;7400284;19;20007;-80
2022/08/23 06:38:42;;;;;;;15.13;12.13;;;17.90;99.90;;;;;;7396656;19;20014;-80
2022/08/23 06:41:10;;;;;;;13.80;11.38;;;18.00;99.90;;;;;;7394078;19;20006;-79
2022/08/23 06:43:37;;;;;;;13.38;11.93;;;18.10;99.90;;;;;;7396696;19;20014;-80
2022/08/23 06:46:14;;;;;;;13.18;10.70;;;18.20;99.90;;;;;;7396877;19;20018;-79
2022/08/23 06:48:42;;;;;;;14.93;11.10;;;18.30;99.90;;;;;;7396642;19;20368;-79
2022/08/23 06:51:26;;;;;;;14.98;11.52;;;18.40;99.90;;;;;;7394106;19;20017;-80
2022/08/23 06:53:54;;;;;;;16.25;10.65;;;18.50;99.90;;;;;;7395856;19;20371;-80
2022/08/23 06:56:24;;;;;;;12.13;10.85;;;18.70;99.90;;;;;;7395943;19;20018;-80
2022/08/23 06:58:51;;;;;;;11.50;10.00;;;18.70;99.90;;;;;;7394189;19;20014;-79
2022/08/23 07:01:40;;;;;;;12.23;10.48;;;18.80;99.90;;;;;;7395066;19;20018;-80
2022/08/23 07:04:08;;;;;;;15.07;10.75;;;18.90;99.90;;;;;;7395474;19;20494;-80
2022/08/23 07:06:34;;;;;;;17.50;10.80;;;18.90;99.90;;;;;;7395442;19;20021;-80
2022/08/23 07:09:02;;;;;;;13.13;10.02;;;19.10;99.90;;;;;;7395419;19;20013;-80
2022/08/23 07:11:30;;;;;;;10.80;9.75;;;19.20;99.90;;;;;;7395735;19;20471;-80
2022/08/23 07:13:58;;;;;;;11.70;9.25;;;19.60;99.90;;;;;;7395324;19;20033;-79
2022/08/23 07:16:24;;;;;;;12.00;9.00;;;20.10;99.90;;;;;;7392344;19;20021;-79
2022/08/23 07:18:51;;;;;;;10.60;9.52;;;20.20;99.90;;;;;;7395261;19;20383;-79
2022/08/23 07:21:18;;;;;;;10.50;9.50;;;20.40;99.90;;;;;;7392065;19;20037;-80
2022/08/23 07:23:47;;;;;;;10.98;9.00;;;20.60;99.90;;;;;;7394800;19;20486;-79
2022/08/23 07:26:15;;;;;;;13.43;7.47;;;21.20;99.90;;;;;;7393625;19;20025;-80
2022/08/23 07:28:41;;;;;;;9.20;7.55;;;22.40;99.90;;;;;;7393267;19;20014;-79
2022/08/23 07:31:27;;;;;;;9.70;7.95;;;23.50;99.90;;;;;;7393415;19;20024;-79
2022/08/23 07:33:54;;;;;;;12.63;7.47;;;24.60;99.90;;;;;;7392878;19;20017;-79
2022/08/23 07:36:23;;;;;;;10.23;6.93;;;25.40;99.90;;;;;;7398720;19;20014;-80
2022/08/23 07:38:49;;;;;;;10.43;7.30;;;26.00;99.90;;;;;;7392683;19;20016;-80
2022/08/23 07:41:19;;;;;;;8.18;6.30;;;26.50;99.90;;;;;;7392206;19;20014;-79
2022/08/23 07:43:45;;;;;;;8.95;6.40;;;26.50;99.90;;;;;;7394045;19;20495;-79
2022/08/23 07:46:12;;;;;;;11.05;6.47;;;26.40;99.90;;;;;;7394269;19;20491;-79
2022/08/23 07:48:44;;;;;;;10.23;6.15;;;26.80;99.90;;;;;;7394026;19;20582;-79
2022/08/23 07:51:12;;;;;;;7.97;6.03;;;26.50;99.90;;;;;;7394059;19;20483;-79
2022/08/23 07:53:38;;;;;;;9.38;5.47;;;26.90;99.90;;;;;;7392586;19;20120;-80
2022/08/23 07:56:10;;;;;;;7.70;6.05;;;26.80;99.90;;;;;;7394241;19;20043;-79
2022/08/23 07:58:37;;;;;;;7.63;4.97;;;26.70;99.90;;;;;;7393962;19;20043;-80
2022/08/23 08:01:13;;;;;;;7.55;6.03;;;26.70;99.90;;;;;;7393348;19;20037;-79
2022/08/23 08:03:39;;;;;;;8.40;6.22;;;26.50;99.90;;;;;;7393756;19;20007;-79
2022/08/23 08:06:11;;;;;;;7.40;5.28;;;26.50;99.90;;;;;;7393698;19;20030;-79
2022/08/23 08:08:39;;;;;;;9.03;5.07;;;26.50;99.90;;;;;;7394063;19;20018;-80
2022/08/23 08:11:06;;;;;;;4.30;3.38;;;26.50;99.90;;;;;;7392145;19;20007;-79
2022/08/23 08:13:34;;;;;;;8.65;4.45;;;26.30;99.90;;;;;;7393648;19;20014;-79
2022/08/23 08:16:00;;;;;;;8.00;4.88;;;26.50;99.90;;;;;;7393405;19;20492;-79
2022/08/23 08:18:26;;;;;;;6.53;4.63;;;26.60;99.90;;;;;;7393292;19;20375;-80
2022/08/23 08:20:52;;;;;;;9.82;4.20;;;26.50;99.90;;;;;;7392872;19;20007;-80
2022/08/23 08:23:18;;;;;;;9.45;5.22;;;26.40;99.90;;;;;;7393250;19;20015;-80
2022/08/23 08:25:44;;;;;;;8.95;5.07;;;26.00;99.90;;;;;;7391444;19;20010;-80
2022/08/23 08:28:10;;;;;;;10.18;4.85;;;25.90;99.90;;;;;;7391794;19;20090;-80
2022/08/23 08:30:35;;;;;;;7.43;4.00;;;26.10;99.90;;;;;;7391050;19;20078;-80
2022/08/23 08:33:01;;;;;;;8.38;4.55;;;26.00;99.90;;;;;;7392033;19;20022;-80
2022/08/23 08:35:27;;;;;;;4.32;3.17;;;25.20;99.90;;;;;;7395106;19;20339;-80
2022/08/23 08:37:53;;;;;;;4.68;3.08;;;24.80;99.90;;;;;;7393560;19;20030;-80
2022/08/23 08:40:27;;;;;;;4.90;2.90;;;24.70;99.90;;;;;;7391033;19;20389;-80
2022/08/23 08:43:22;;;;;;;5.47;2.70;;;24.60;99.90;;;;;;7395845;19;20034;-80
2022/08/23 08:46:33;;;;;;;10.93;4.35;;;24.60;99.90;;;;;;7400484;19;20014;-80
2022/08/23 08:49:03;;;;;;;8.40;3.60;;;24.50;99.90;;;;;;7398908;19;20022;-80
2022/08/23 08:51:44;;;;;;;6.85;3.10;;;24.40;99.90;;;;;;7399345;19;20006;-80
2022/08/23 08:54:15;;;;;;;9.48;3.90;;;24.40;99.90;;;;;;7399985;19;20010;-81
2022/08/23 08:56:43;;;;;;;6.72;3.50;;;24.40;99.90;;;;;;7399850;19;20087;-80
2022/08/23 08:59:17;;;;;;;8.32;3.78;;;24.40;99.90;;;;;;7399843;19;20036;-80
2022/08/23 09:01:44;;;;;;;5.35;3.50;;;24.30;99.90;;;;;;7396216;19;20003;-80
2022/08/23 09:04:10;;;;;;;6.68;3.80;;;24.40;99.90;;;;;;7398001;19;20010;-80
2022/08/23 09:06:39;;;;;;;7.22;3.40;;;24.50;99.90;;;;;;7399986;19;20010;-80
2022/08/23 09:09:50;;;;;;;5.35;2.85;;;24.50;99.90;;;;;;7400378;19;20014;-80
2022/08/23 09:13:02;;;;;;;9.80;3.08;;;24.70;99.90;;;;;;7399196;19;20103;-80
2022/08/23 09:15:40;;;;;;;3.80;2.40;;;24.90;99.90;;;;;;7399732;19;20014;-80
2022/08/23 09:18:14;;;;;;;3.17;2.33;;;25.00;99.90;;;;;;7399071;19;20034;-80
2022/08/23 09:20:42;;;;;;;10.18;3.78;;;25.00;99.90;;;;;;7398536;19;20034;-80
2022/08/23 09:23:24;;;;;;;6.68;2.92;;;25.10;99.90;;;;;;7399229;19;20388;-80
2022/08/23 09:25:56;;;;;;;7.15;3.28;;;25.30;99.90;;;;;;7398983;19;20400;-80
2022/08/23 09:28:22;;;;;;;5.38;3.28;;;25.40;99.90;;;;;;7397091;19;20368;-80
2022/08/23 09:30:56;;;;;;;4.03;3.00;;;25.60;99.90;;;;;;7397162;19;20042;-80
2022/08/23 09:33:25;;;;;;;4.22;3.55;;;25.70;99.90;;;;;;7396989;19;20052;-80
2022/08/23 09:36:05;;;;;;;4.90;2.80;;;25.80;99.90;;;;;;7403217;19;20014;-80
2022/08/23 09:38:32;;;;;;;7.15;3.47;;;25.80;99.90;;;;;;7398306;19;20017;-80
2022/08/23 09:40:58;;;;;;;7.75;3.35;;;26.00;99.90;;;;;;7397644;19;20007;-80
2022/08/23 09:43:27;;;;;;;4.97;2.90;;;26.00;99.90;;;;;;7398212;19;20015;-80
2022/08/23 09:45:56;;;;;;;5.68;2.78;;;26.00;99.90;;;;;;7398619;19;20015;-81
2022/08/23 09:48:40;;;;;;;3.83;2.00;;;26.10;99.90;;;;;;7398193;19;20018;-80
2022/08/23 09:51:10;;;;;;;4.43;2.20;;;26.20;99.90;;;;;;7397923;19;20018;-80
2022/08/23 09:53:36;;;;;;;4.25;2.50;;;26.00;99.90;;;;;;7398090;19;20016;-80
2022/08/23 09:56:15;;;;;;;5.43;2.92;;;26.00;99.90;;;;;;7396940;19;20007;-80
2022/08/23 09:58:45;;;;;;;6.68;3.40;;;26.10;99.30;;;;;;7396257;19;20027;-80
2022/08/23 10:01:12;;;;;;;5.00;2.60;;;26.10;99.60;;;;;;7397350;19;20017;-80
2022/08/23 10:03:39;;;;;;;3.38;2.33;;;26.20;99.90;;;;;;7397636;19;20015;-80
2022/08/23 10:06:07;;;;;;;5.75;2.63;;;26.20;99.90;;;;;;7397413;19;20014;-80
2022/08/23 10:08:49;;;;;;;5.10;2.60;;;26.30;99.50;;;;;;7398040;19;20014;-80
2022/08/23 10:11:21;;;;;;;5.75;3.30;;;26.30;99.90;;;;;;7395902;19;20014;-80
2022/08/23 10:13:47;;;;;;;2.72;2.03;;;26.30;99.10;;;;;;7397462;19;20019;-80
2022/08/23 10:16:38;;;;;;;5.93;2.95;;;26.50;99.90;;;;;;7394827;19;20345;-81
2022/08/23 10:19:49;;;;;;;4.70;2.22;;;26.50;98.90;;;;;;7397147;19;20450;-80
2022/08/23 10:22:25;;;;;;;3.47;2.30;;;26.60;98.90;;;;;;7394534;19;20066;-80
2022/08/23 10:25:06;;;;;;;5.93;2.72;;;26.70;99.60;;;;;;7395355;19;20552;-80
2022/08/23 10:30:58;;;;;;;7.55;2.58;;;26.60;99.20;;;;;;7396807;19;20010;-79
2022/08/23 10:33:47;;;;;;;4.90;2.38;;;26.80;99.10;;;;;;7397013;19;20021;-80
2022/08/23 10:36:51;;;;;;;4.13;2.15;;;26.90;99.20;;;;;;7397123;19;20017;-80
2022/08/23 10:39:26;;;;;;;4.68;2.70;;;27.00;97.80;;;;;;7395588;19;20484;-79
2022/08/23 10:42:11;;;;;;;7.47;2.65;;;27.10;98.50;;;;;;7393460;19;20025;-80
2022/08/23 10:44:58;;;;;;;6.55;2.70;;;27.10;98.30;;;;;;7396865;19;20006;-80
2022/08/23 10:47:42;;;;;;;6.68;2.30;;;27.30;98.10;;;;;;7396347;19;20010;-79
2022/08/23 10:50:12;;;;;;;3.38;2.17;;;27.40;98.20;;;;;;7397015;19;20014;-80
2022/08/23 10:53:14;;;;;;;3.22;2.00;;;27.50;98.30;;;;;;7395899;19;20471;-80
2022/08/23 10:56:03;;;;;;;4.53;2.40;;;27.70;98.50;;;;;;7394339;19;20040;-79
2022/08/23 10:58:41;;;;;;;5.00;2.40;;;27.70;98.00;;;;;;7395743;19;20479;-80
2022/08/23 11:01:11;;;;;;;5.47;2.15;;;27.60;97.10;;;;;;7394988;19;20012;-79
2022/08/23 11:03:43;;;;;;;4.47;2.17;;;27.60;97.40;;;;;;7396064;19;20010;-80
2022/08/23 11:06:34;;;;;;;4.70;2.53;;;27.50;97.20;;;;;;7393606;19;20359;-79
2022/08/23 11:09:05;;;;;;;5.93;2.47;;;27.60;97.10;;;;;;7393899;19;20519;-80
2022/08/23 11:11:43;;;;;;;7.20;2.63;;;27.70;97.10;;;;;;7395537;19;20015;-79
2022/08/23 11:14:29;;;;;;;6.70;2.53;;;27.60;97.00;;;;;;7395599;19;20007;-80
2022/08/23 11:17:01;;;;;;;5.10;2.60;;;27.60;97.10;;;;;;7393754;19;20022;-79
2022/08/23 11:19:46;;;;;;;5.20;2.40;;;27.70;97.30;;;;;;7394736;19;20006;-80
2022/08/23 11:22:52;;;;;;;4.20;2.20;;;27.80;97.80;;;;;;7391979;19;20275;-80
2022/08/23 11:25:18;;;;;;;5.78;2.50;;;27.80;96.70;;;;;;7394486;19;20025;-80
2022/08/23 11:27:44;;;;;;;6.13;2.60;;;27.80;97.30;;;;;;7394385;19;20014;-80
2022/08/23 11:30:31;;;;;;;3.35;2.30;;;27.90;97.30;;;;;;7393545;19;20024;-80
2022/08/23 11:33:27;;;;;;;4.07;2.10;;;27.90;96.20;;;;;;7394724;19;20017;-80
2022/08/23 11:36:20;;;;;;;4.95;2.40;;;27.90;95.70;;;;;;7394295;19;20010;-80
2022/08/23 11:38:46;;;;;;;5.72;2.20;;;27.90;96.60;;;;;;7394822;19;20446;-80
2022/08/23 11:41:17;;;;;;;5.20;2.22;;;28.00;96.60;;;;;;7393532;19;20025;-80
2022/08/23 11:43:48;;;;;;;6.07;2.70;;;28.00;96.90;;;;;;7394278;19;20021;-80
2022/08/23 11:46:26;;;;;;;6.15;2.75;;;27.90;96.60;;;;;;7394106;19;20036;-80
2022/08/23 11:48:52;;;;;;;6.03;2.40;;;28.00;95.80;;;;;;7394023;19;20010;-80
2022/08/23 11:51:24;;;;;;;5.88;2.67;;;28.10;96.60;;;;;;7393586;19;20037;-80
2022/08/23 11:53:53;;;;;;;;;;;28.10;96.00;;;;;;7394728;19;20017;-80
2022/08/23 11:56:29;;;;;;;4.97;2.60;;;28.00;95.80;;;;;;7392251;19;19923;-80
2022/08/23 11:59:18;;;;;;;5.85;2.88;;;28.10;96.50;;;;;;7393763;19;20436;-80
2022/08/23 12:01:45;;;;;;;4.35;2.28;;;28.20;95.70;;;;;;7392749;19;20011;-80
2022/08/23 12:04:41;;;;;;;4.82;2.08;;;28.30;96.20;;;;;;7392038;19;20011;-80
2022/08/23 12:07:12;;;;;;;2.30;1.58;;;28.30;95.60;;;;;;7393295;19;20116;-80
2022/08/23 12:09:41;;;;;;;6.75;2.10;;;28.20;96.40;;;;;;7393839;19;20014;-80
2022/08/23 12:12:33;;;;;;;2.70;2.00;;;28.20;95.80;;;;;;7393309;19;20073;-79
2022/08/23 12:15:04;;;;;;;4.75;2.53;;;28.30;94.00;;;;;;7392851;19;20078;-80
2022/08/23 12:17:29;;;;;;;5.90;2.67;;;28.40;95.20;;;;;;7390677;19;20078;-79
2022/08/23 12:20:06;;;;;;;10.32;2.60;;;28.50;94.70;;;;;;7393084;19;20018;-80
2022/08/23 12:23:05;;;;;;;6.30;2.20;;;28.60;93.30;;;;;;7391837;19;20337;-80
2022/08/23 12:25:31;;;;;;;5.65;2.60;;;28.70;93.40;;;;;;7392894;19;20002;-79
2022/08/23 12:28:28;;;;;;;6.03;1.98;;;28.90;94.00;;;;;;7391780;19;20014;-80
2022/08/23 12:31:05;;;;;;;3.00;1.83;;;28.90;94.30;;;;;;7393280;19;20011;-80
2022/08/23 12:33:47;;;;;;;5.03;2.40;;;28.90;92.60;;;;;;7392973;19;20015;-80
2022/08/23 12:36:37;;;;;;;2.63;1.80;;;28.80;93.70;;;;;;7391149;19;20086;-80
2022/08/23 12:39:27;;;;;;;4.22;1.88;;;28.90;94.30;;;;;;7393084;19;20418;-80
2022/08/23 12:42:01;;;;;;;5.35;2.33;;;28.90;94.30;;;;;;7392337;19;20014;-79
2022/08/23 12:44:28;;;;;;;4.07;2.30;;;28.90;94.10;;;;;;7392618;19;20011;-80
2022/08/23 12:46:55;;;;;;;4.05;2.10;;;29.00;93.30;;;;;;7391589;19;20033;-80
2022/08/23 12:49:29;;;;;;;4.50;2.10;;;29.00;94.00;;;;;;7392352;19;20014;-80
2022/08/23 12:51:58;;;;;;;6.88;2.13;;;29.00;94.30;;;;;;7392204;19;20015;-80
2022/08/23 12:54:40;;;;;;;5.72;2.28;;;28.90;93.80;;;;;;7392208;19;20496;-80
2022/08/23 12:57:12;;;;;;;4.38;2.17;;;29.10;94.30;;;;;;7390445;19;20010;-80
2022/08/23 12:59:53;;;;;;;4.22;1.90;;;29.10;93.60;;;;;;7392737;19;20038;-80
2022/08/23 13:02:27;;;;;;;1.92;1.50;;;29.00;94.50;;;;;;7391232;19;20017;-80
2022/08/23 13:05:01;;;;;;;4.75;1.95;;;29.00;95.00;;;;;;7392249;19;20018;-80
2022/08/23 13:07:28;;;;;;;4.07;2.25;;;28.80;94.90;;;;;;7392752;19;20022;-80
2022/08/23 13:09:55;;;;;;;5.50;2.35;;;28.60;94.60;;;;;;7390681;19;20085;-80
2022/08/23 13:12:22;;;;;;;3.20;2.13;;;28.50;93.70;;;;;;7390013;19;20019;-80